CheckWX is a tool to help pilots better visualize weather data.  It is not intended as a substitute for an official pre-flight weather briefing.

09:32:34 UTC

EPZG METAR
Zielona Góra-Babimost Airport
Babimost, Poland
Current

33 mins ago

EPZG 070900Z 23017KT 9999 BKN010 OVC013 07/06 Q1004
Observed
Dec-7 @ 09:00 UTC
Wind
  • 230° at 17 KTS
Visibility
10,000+ meters
Flight Rules
MVFR
Cloud Levels
  • Broken at 1,000' AGL
  • Overcast at 1,300' AGL
Temperature
C / 45°F
Dewpoint
C / 43°F
Humidity
93%
Altimeter
29.65" Hg
Pressure
1003.92 hPa
Previous

1 hour ago

EPZG 070830Z 22014KT 7000 BKN009 OVC011 07/05 Q1004
Observed
Dec-7 @ 08:30 UTC
Wind
  • 220° at 14 KTS
Visibility
7,000 meters
Flight Rules
IFR
Cloud Levels
  • Broken at 900' AGL
  • Overcast at 1,100' AGL
Temperature
C / 45°F
Dewpoint
C / 41°F
Humidity
87%
Altimeter
29.65" Hg
Pressure
1003.92 hPa
Previous

2 hours ago

EPZG 070800Z 22015KT 6000 -RA FEW008 BKN012 OVC017 06/05 Q1004
Observed
Dec-7 @ 08:00 UTC
Wind
  • 220° at 15 KTS
Visibility
6,000 meters
Flight Rules
MVFR
Conditions
Light Rain
Cloud Levels
  • Few at 800' AGL
  • Broken at 1,200' AGL
  • Overcast at 1,700' AGL
Temperature
C / 43°F
Dewpoint
C / 41°F
Humidity
93%
Altimeter
29.65" Hg
Pressure
1003.92 hPa